sensor_id;sensor_type;location;lat;lon;timestamp;pressure;altitude;pressure_sealevel;temperature;humidity
32298;BME280;18782;48.984;8.548;2022-09-17T00:01:39;99662.03;;;12.18;83.52
32298;BME280;18782;48.984;8.548;2022-09-17T00:04:08;99666.19;;;12.07;82.66
32298;BME280;18782;48.984;8.548;2022-09-17T00:06:36;99661.09;;;12.12;84.09
32298;BME280;18782;48.984;8.548;2022-09-17T00:09:05;99669.69;;;12.12;83.33
32298;BME280;18782;48.984;8.548;2022-09-17T00:11:35;99661.91;;;12.09;84.39
32298;BME280;18782;48.984;8.548;2022-09-17T00:14:04;99673.06;;;12.07;83.52
32298;BME280;18782;48.984;8.548;2022-09-17T00:16:35;99669.63;;;12.06;84.48
32298;BME280;18782;48.984;8.548;2022-09-17T00:19:07;99670.50;;;12.08;85.56
32298;BME280;18782;48.984;8.548;2022-09-17T00:21:36;99668.91;;;12.16;85.45
32298;BME280;18782;48.984;8.548;2022-09-17T00:24:05;99672.44;;;12.24;85.93
32298;BME280;18782;48.984;8.548;2022-09-17T00:26:33;99666.41;;;12.25;84.81
32298;BME280;18782;48.984;8.548;2022-09-17T00:29:03;99674.81;;;12.11;83.52
32298;BME280;18782;48.984;8.548;2022-09-17T00:31:31;99670.34;;;11.96;83.73
32298;BME280;18782;48.984;8.548;2022-09-17T00:34:00;99675.50;;;11.96;83.45
32298;BME280;18782;48.984;8.548;2022-09-17T00:36:31;99674.78;;;12.08;85.45
32298;BME280;18782;48.984;8.548;2022-09-17T00:39:01;99677.38;;;12.09;83.01
32298;BME280;18782;48.984;8.548;2022-09-17T00:41:31;99684.25;;;12.07;82.69
32298;BME280;18782;48.984;8.548;2022-09-17T00:44:01;99679.03;;;12.04;82.40
32298;BME280;18782;48.984;8.548;2022-09-17T00:46:49;99682.59;;;12.12;82.51
32298;BME280;18782;48.984;8.548;2022-09-17T00:49:23;99677.25;;;12.00;81.55
32298;BME280;18782;48.984;8.548;2022-09-17T00:51:56;99678.72;;;11.84;82.14
32298;BME280;18782;48.984;8.548;2022-09-17T00:54:26;99673.47;;;11.80;82.19
32298;BME280;18782;48.984;8.548;2022-09-17T00:56:55;99680.31;;;11.74;82.59
32298;BME280;18782;48.984;8.548;2022-09-17T00:59:24;99678.53;;;11.73;82.36
32298;BME280;18782;48.984;8.548;2022-09-17T01:04:26;99682.81;;;11.70;83.08
32298;BME280;18782;48.984;8.548;2022-09-17T01:07:01;99686.19;;;11.67;82.20
32298;BME280;18782;48.984;8.548;2022-09-17T01:09:40;99681.94;;;11.69;82.60
32298;BME280;18782;48.984;8.548;2022-09-17T01:12:20;99685.31;;;11.65;81.57
32298;BME280;18782;48.984;8.548;2022-09-17T01:15:01;99689.72;;;11.74;83.65
32298;BME280;18782;48.984;8.548;2022-09-17T01:17:40;99682.16;;;11.82;84.26
32298;BME280;18782;48.984;8.548;2022-09-17T01:20:35;99696.84;;;11.89;83.11
32298;BME280;18782;48.984;8.548;2022-09-17T01:23:30;99700.16;;;11.80;81.59
32298;BME280;18782;48.984;8.548;2022-09-17T01:26:20;99706.22;;;11.82;83.13
32298;BME280;18782;48.984;8.548;2022-09-17T01:28:58;99706.13;;;11.77;82.36
32298;BME280;18782;48.984;8.548;2022-09-17T01:31:35;99706.09;;;11.74;83.14
32298;BME280;18782;48.984;8.548;2022-09-17T01:34:14;99712.16;;;11.80;82.34
32298;BME280;18782;48.984;8.548;2022-09-17T01:36:58;99712.13;;;11.76;83.46
32298;BME280;18782;48.984;8.548;2022-09-17T01:39:34;99704.38;;;11.76;82.83
32298;BME280;18782;48.984;8.548;2022-09-17T01:42:15;99700.81;;;11.68;82.20
32298;BME280;18782;48.984;8.548;2022-09-17T01:44:49;99698.28;;;11.70;83.72
32298;BME280;18782;48.984;8.548;2022-09-17T01:47:23;99710.19;;;11.63;83.23
32298;BME280;18782;48.984;8.548;2022-09-17T01:49:58;99714.59;;;11.70;83.83
32298;BME280;18782;48.984;8.548;2022-09-17T01:52:27;99719.78;;;11.73;84.48
32298;BME280;18782;48.984;8.548;2022-09-17T01:55:00;99713.63;;;11.64;83.68
32298;BME280;18782;48.984;8.548;2022-09-17T01:57:33;99711.09;;;11.65;85.14
32298;BME280;18782;48.984;8.548;2022-09-17T02:00:05;99709.19;;;11.55;84.53
32298;BME280;18782;48.984;8.548;2022-09-17T02:02:40;99705.59;;;11.47;83.77
32298;BME280;18782;48.984;8.548;2022-09-17T02:05:16;99705.50;;;11.41;84.00
32298;BME280;18782;48.984;8.548;2022-09-17T02:07:50;99702.09;;;11.42;85.70
32298;BME280;18782;48.984;8.548;2022-09-17T02:10:21;99708.16;;;11.44;85.24
32298;BME280;18782;48.984;8.548;2022-09-17T02:12:55;99708.28;;;11.53;85.68
32298;BME280;18782;48.984;8.548;2022-09-17T02:15:27;99703.97;;;11.50;85.16
32298;BME280;18782;48.984;8.548;2022-09-17T02:17:59;99706.53;;;11.50;85.29
32298;BME280;18782;48.984;8.548;2022-09-17T02:20:38;99701.31;;;11.47;84.49
32298;BME280;18782;48.984;8.548;2022-09-17T02:23:11;99693.63;;;11.49;84.94
32298;BME280;18782;48.984;8.548;2022-09-17T02:25:41;99690.22;;;11.50;84.49
32298;BME280;18782;48.984;8.548;2022-09-17T02:28:13;99691.75;;;11.39;85.07
32298;BME280;18782;48.984;8.548;2022-09-17T02:30:42;99687.47;;;11.41;85.76
32298;BME280;18782;48.984;8.548;2022-09-17T02:33:13;99696.97;;;11.43;86.03
32298;BME280;18782;48.984;8.548;2022-09-17T02:35:42;99691.84;;;11.45;85.04
32298;BME280;18782;48.984;8.548;2022-09-17T02:38:12;99696.97;;;11.43;85.11
32298;BME280;18782;48.984;8.548;2022-09-17T02:40:44;99691.88;;;11.48;85.11
32298;BME280;18782;48.984;8.548;2022-09-17T02:43:18;99695.13;;;11.38;84.74
32298;BME280;18782;48.984;8.548;2022-09-17T02:45:56;99691.69;;;11.36;84.13
32298;BME280;18782;48.984;8.548;2022-09-17T02:48:41;99685.28;;;11.14;85.25
32298;BME280;18782;48.984;8.548;2022-09-17T02:51:23;99685.13;;;11.06;86.95
32298;BME280;18782;48.984;8.548;2022-09-17T02:53:59;99689.41;;;11.04;88.08
32298;BME280;18782;48.984;8.548;2022-09-17T02:56:41;99702.16;;;10.96;87.10
32298;BME280;18782;48.984;8.548;2022-09-17T02:59:16;99710.75;;;10.98;87.57
32298;BME280;18782;48.984;8.548;2022-09-17T03:01:52;99704.69;;;10.95;87.07
32298;BME280;18782;48.984;8.548;2022-09-17T03:04:26;99694.38;;;10.95;87.43
32298;BME280;18782;48.984;8.548;2022-09-17T03:06:55;99695.97;;;10.87;86.23
32298;BME280;18782;48.984;8.548;2022-09-17T03:09:24;99705.34;;;10.85;86.61
32298;BME280;18782;48.984;8.548;2022-09-17T03:11:51;99702.84;;;10.88;87.19
32298;BME280;18782;48.984;8.548;2022-09-17T03:14:19;99707.88;;;10.83;86.97
32298;BME280;18782;48.984;8.548;2022-09-17T03:16:46;99712.97;;;10.80;86.33
32298;BME280;18782;48.984;8.548;2022-09-17T03:19:14;99707.59;;;10.69;86.13
32298;BME280;18782;48.984;8.548;2022-09-17T03:21:43;99714.38;;;10.64;86.31
32298;BME280;18782;48.984;8.548;2022-09-17T03:24:10;99712.63;;;10.63;87.14
32298;BME280;18782;48.984;8.548;2022-09-17T03:26:38;99723.00;;;10.66;89.19
32298;BME280;18782;48.984;8.548;2022-09-17T03:29:06;99724.75;;;10.67;86.67
32298;BME280;18782;48.984;8.548;2022-09-17T03:31:33;99728.28;;;10.73;87.54
32298;BME280;18782;48.984;8.548;2022-09-17T03:34:01;99725.56;;;10.65;86.90
32298;BME280;18782;48.984;8.548;2022-09-17T03:36:29;99726.47;;;10.68;87.09
32298;BME280;18782;48.984;8.548;2022-09-17T03:38:58;99730.72;;;10.66;87.91
32298;BME280;18782;48.984;8.548;2022-09-17T03:41:26;99727.25;;;10.64;87.18
32298;BME280;18782;48.984;8.548;2022-09-17T03:43:53;99732.47;;;10.69;88.02
32298;BME280;18782;48.984;8.548;2022-09-17T03:46:21;99725.41;;;10.59;87.05
32298;BME280;18782;48.984;8.548;2022-09-17T03:48:48;99734.91;;;10.61;88.11
32298;BME280;18782;48.984;8.548;2022-09-17T03:51:16;99734.84;;;10.58;86.67
32298;BME280;18782;48.984;8.548;2022-09-17T03:53:43;99739.97;;;10.57;87.46
32298;BME280;18782;48.984;8.548;2022-09-17T03:56:12;99749.41;;;10.58;86.82
32298;BME280;18782;48.984;8.548;2022-09-17T03:58:40;99739.13;;;10.59;87.99
32298;BME280;18782;48.984;8.548;2022-09-17T04:01:08;99734.72;;;10.52;86.73
32298;BME280;18782;48.984;8.548;2022-09-17T04:03:35;99746.50;;;10.41;87.36
32298;BME280;18782;48.984;8.548;2022-09-17T04:06:03;99732.66;;;10.36;87.39
32298;BME280;18782;48.984;8.548;2022-09-17T04:08:30;99743.03;;;10.39;87.64
32298;BME280;18782;48.984;8.548;2022-09-17T04:10:59;99741.13;;;10.32;88.11
32298;BME280;18782;48.984;8.548;2022-09-17T04:13:28;99750.53;;;10.30;88.94
32298;BME280;18782;48.984;8.548;2022-09-17T04:15:55;99751.38;;;10.29;88.87
32298;BME280;18782;48.984;8.548;2022-09-17T04:18:23;99755.91;;;10.40;88.75
32298;BME280;18782;48.984;8.548;2022-09-17T04:20:50;99755.31;;;10.52;88.58
32298;BME280;18782;48.984;8.548;2022-09-17T04:23:18;99757.00;;;10.52;86.87
32298;BME280;18782;48.984;8.548;2022-09-17T04:25:46;99752.81;;;10.55;87.85
32298;BME280;18782;48.984;8.548;2022-09-17T04:28:14;99749.50;;;10.62;86.62
32298;BME280;18782;48.984;8.548;2022-09-17T04:30:43;99750.34;;;10.61;87.44
32298;BME280;18782;48.984;8.548;2022-09-17T04:33:11;99760.56;;;10.58;86.76
32298;BME280;18782;48.984;8.548;2022-09-17T04:35:38;99753.56;;;10.51;88.05
32298;BME280;18782;48.984;8.548;2022-09-17T04:38:06;99757.91;;;10.54;85.88
32298;BME280;18782;48.984;8.548;2022-09-17T04:40:33;99764.06;;;10.60;86.68
32298;BME280;18782;48.984;8.548;2022-09-17T04:43:01;99760.56;;;10.58;85.67
32298;BME280;18782;48.984;8.548;2022-09-17T04:45:29;99765.81;;;10.61;86.21
32298;BME280;18782;48.984;8.548;2022-09-17T04:48:00;99776.03;;;10.58;86.57
32298;BME280;18782;48.984;8.548;2022-09-17T04:50:28;99782.97;;;10.62;86.52
32298;BME280;18782;48.984;8.548;2022-09-17T04:52:56;99782.78;;;10.53;85.71
32298;BME280;18782;48.984;8.548;2022-09-17T04:55:24;99778.22;;;10.41;85.55
32298;BME280;18782;48.984;8.548;2022-09-17T04:57:53;99786.25;;;10.55;86.57
32298;BME280;18782;48.984;8.548;2022-09-17T05:00:22;99785.56;;;10.62;87.31
32298;BME280;18782;48.984;8.548;2022-09-17T05:02:51;99780.31;;;10.59;85.88
32298;BME280;18782;48.984;8.548;2022-09-17T05:05:21;99776.84;;;10.56;85.01
32298;BME280;18782;48.984;8.548;2022-09-17T05:07:49;99785.69;;;10.70;85.99
32298;BME280;18782;48.984;8.548;2022-09-17T05:10:18;99785.16;;;10.85;85.39
32298;BME280;18782;48.984;8.548;2022-09-17T05:12:47;99783.19;;;10.71;84.21
32298;BME280;18782;48.984;8.548;2022-09-17T05:15:15;99790.56;;;10.56;84.04
32298;BME280;18782;48.984;8.548;2022-09-17T05:17:43;99798.28;;;10.56;85.28
32298;BME280;18782;48.984;8.548;2022-09-17T05:20:11;99803.34;;;10.53;84.17
32298;BME280;18782;48.984;8.548;2022-09-17T05:22:42;99798.16;;;10.50;84.66
32298;BME280;18782;48.984;8.548;2022-09-17T05:25:10;99806.78;;;10.52;84.14
32298;BME280;18782;48.984;8.548;2022-09-17T05:27:38;99800.91;;;10.59;85.66
32298;BME280;18782;48.984;8.548;2022-09-17T05:30:07;99815.72;;;10.69;84.75
32298;BME280;18782;48.984;8.548;2022-09-17T05:32:35;99806.16;;;10.64;83.37
32298;BME280;18782;48.984;8.548;2022-09-17T05:35:04;99803.00;;;10.38;84.79
32298;BME280;18782;48.984;8.548;2022-09-17T05:37:33;99806.56;;;10.43;84.29
32298;BME280;18782;48.984;8.548;2022-09-17T05:40:02;99810.91;;;10.44;84.23
32298;BME280;18782;48.984;8.548;2022-09-17T05:42:31;99810.91;;;10.45;83.94
32298;BME280;18782;48.984;8.548;2022-09-17T05:44:59;99818.44;;;10.38;83.36
32298;BME280;18782;48.984;8.548;2022-09-17T05:47:26;99824.38;;;10.34;84.23
32298;BME280;18782;48.984;8.548;2022-09-17T05:49:54;99827.16;;;10.43;85.17
32298;BME280;18782;48.984;8.548;2022-09-17T05:52:25;99820.63;;;10.59;84.99
32298;BME280;18782;48.984;8.548;2022-09-17T05:54:53;99820.88;;;10.69;84.24
32298;BME280;18782;48.984;8.548;2022-09-17T05:57:22;99826.22;;;10.79;82.98
32298;BME280;18782;48.984;8.548;2022-09-17T05:59:50;99836.28;;;10.66;83.89
32298;BME280;18782;48.984;8.548;2022-09-17T06:02:17;99829.81;;;10.48;83.98
32298;BME280;18782;48.984;8.548;2022-09-17T06:04:45;99822.34;;;10.58;86.87
32298;BME280;18782;48.984;8.548;2022-09-17T06:07:13;99831.13;;;10.66;84.25
32298;BME280;18782;48.984;8.548;2022-09-17T06:09:40;99831.53;;;10.47;84.73
32298;BME280;18782;48.984;8.548;2022-09-17T06:12:08;99835.84;;;10.48;86.29
32298;BME280;18782;48.984;8.548;2022-09-17T06:14:37;99832.97;;;10.74;88.29
32298;BME280;18782;48.984;8.548;2022-09-17T06:17:04;99834.78;;;10.78;87.48
32298;BME280;18782;48.984;8.548;2022-09-17T06:19:32;99841.88;;;10.88;88.07
32298;BME280;18782;48.984;8.548;2022-09-17T06:21:59;99838.53;;;10.92;84.39
32298;BME280;18782;48.984;8.548;2022-09-17T06:24:27;99841.81;;;10.85;86.51
32298;BME280;18782;48.984;8.548;2022-09-17T06:26:55;99849.41;;;10.79;86.51
32298;BME280;18782;48.984;8.548;2022-09-17T06:29:22;99850.97;;;10.70;87.16
32298;BME280;18782;48.984;8.548;2022-09-17T06:31:51;99858.47;;;10.61;87.11
32298;BME280;18782;48.984;8.548;2022-09-17T06:34:19;99850.59;;;10.55;88.05
32298;BME280;18782;48.984;8.548;2022-09-17T06:36:47;99850.16;;;10.75;91.88
32298;BME280;18782;48.984;8.548;2022-09-17T06:39:15;99855.88;;;10.60;87.30
32298;BME280;18782;48.984;8.548;2022-09-17T06:41:42;99846.94;;;10.45;89.03
32298;BME280;18782;48.984;8.548;2022-09-17T06:44:11;99838.81;;;10.65;89.55
32298;BME280;18782;48.984;8.548;2022-09-17T06:46:39;99849.56;;;10.47;88.52
32298;BME280;18782;48.984;8.548;2022-09-17T06:49:08;99848.09;;;10.58;90.94
32298;BME280;18782;48.984;8.548;2022-09-17T06:51:36;99854.78;;;10.50;91.34
32298;BME280;18782;48.984;8.548;2022-09-17T06:54:04;99858.72;;;10.74;89.44
32298;BME280;18782;48.984;8.548;2022-09-17T06:56:32;99859.16;;;10.92;91.29
32298;BME280;18782;48.984;8.548;2022-09-17T06:59:00;99857.88;;;10.73;89.00
32298;BME280;18782;48.984;8.548;2022-09-17T07:01:27;99861.81;;;10.96;88.62
32298;BME280;18782;48.984;8.548;2022-09-17T07:03:55;99855.84;;;10.99;89.30
32298;BME280;18782;48.984;8.548;2022-09-17T07:06:24;99864.88;;;11.19;87.59
32298;BME280;18782;48.984;8.548;2022-09-17T07:08:52;99866.25;;;11.02;86.34
32298;BME280;18782;48.984;8.548;2022-09-17T07:11:20;99869.25;;;10.83;87.09
32298;BME280;18782;48.984;8.548;2022-09-17T07:13:48;99863.25;;;10.84;87.96
32298;BME280;18782;48.984;8.548;2022-09-17T07:16:15;99861.97;;;11.04;88.24
32298;BME280;18782;48.984;8.548;2022-09-17T07:18:43;99862.94;;;11.09;86.84
32298;BME280;18782;48.984;8.548;2022-09-17T07:21:10;99871.94;;;11.30;87.28
32298;BME280;18782;48.984;8.548;2022-09-17T07:23:39;99863.78;;;11.52;87.42
32298;BME280;18782;48.984;8.548;2022-09-17T07:26:11;99867.50;;;11.66;86.06
32298;BME280;18782;48.984;8.548;2022-09-17T07:28:40;99871.81;;;11.66;83.80
32298;BME280;18782;48.984;8.548;2022-09-17T07:31:10;99872.16;;;11.39;83.69
32298;BME280;18782;48.984;8.548;2022-09-17T07:33:42;99872.31;;;11.48;85.79
32298;BME280;18782;48.984;8.548;2022-09-17T07:36:12;99876.75;;;11.55;85.25
32298;BME280;18782;48.984;8.548;2022-09-17T07:38:41;99880.53;;;11.74;84.37
32298;BME280;18782;48.984;8.548;2022-09-17T07:41:11;99882.63;;;11.90;84.71
32298;BME280;18782;48.984;8.548;2022-09-17T07:43:39;99890.38;;;11.92;84.18
32298;BME280;18782;48.984;8.548;2022-09-17T07:46:12;99883.47;;;11.91;81.88
32298;BME280;18782;48.984;8.548;2022-09-17T07:48:40;99884.16;;;11.82;83.94
32298;BME280;18782;48.984;8.548;2022-09-17T07:51:14;99885.59;;;12.13;84.55
32298;BME280;18782;48.984;8.548;2022-09-17T07:53:42;99882.41;;;12.30;83.64
32298;BME280;18782;48.984;8.548;2022-09-17T07:56:10;99889.78;;;12.58;83.02
32298;BME280;18782;48.984;8.548;2022-09-17T07:58:38;99893.63;;;12.88;81.78
32298;BME280;18782;48.984;8.548;2022-09-17T08:01:07;99891.75;;;12.77;79.29
32298;BME280;18782;48.984;8.548;2022-09-17T08:03:36;99896.88;;;12.20;77.71
32298;BME280;18782;48.984;8.548;2022-09-17T08:06:05;99903.00;;;12.26;79.27
32298;BME280;18782;48.984;8.548;2022-09-17T08:08:34;99898.16;;;12.45;79.01
32298;BME280;18782;48.984;8.548;2022-09-17T08:11:05;99897.81;;;12.23;78.28
32298;BME280;18782;48.984;8.548;2022-09-17T08:13:33;99898.72;;;12.27;80.08
32298;BME280;18782;48.984;8.548;2022-09-17T08:16:02;99905.41;;;12.16;79.43
32298;BME280;18782;48.984;8.548;2022-09-17T08:18:31;99898.06;;;12.40;80.36
32298;BME280;18782;48.984;8.548;2022-09-17T08:20:59;99902.25;;;12.32;78.10
32298;BME280;18782;48.984;8.548;2022-09-17T08:23:28;99895.16;;;12.20;79.52
32298;BME280;18782;48.984;8.548;2022-09-17T08:25:57;99893.63;;;12.32;78.90
32298;BME280;18782;48.984;8.548;2022-09-17T08:28:29;99897.47;;;12.57;79.39
32298;BME280;18782;48.984;8.548;2022-09-17T08:31:00;99899.47;;;12.74;78.66
32298;BME280;18782;48.984;8.548;2022-09-17T08:33:29;99904.81;;;12.85;77.27
32298;BME280;18782;48.984;8.548;2022-09-17T08:35:58;99902.16;;;12.80;79.37
32298;BME280;18782;48.984;8.548;2022-09-17T08:38:26;99915.22;;;12.91;78.57
32298;BME280;18782;48.984;8.548;2022-09-17T08:41:01;99908.31;;;12.90;77.25
32298;BME280;18782;48.984;8.548;2022-09-17T08:43:40;99905.63;;;12.30;79.54
32298;BME280;18782;48.984;8.548;2022-09-17T08:46:09;99916.31;;;12.52;78.01
32298;BME280;18782;48.984;8.548;2022-09-17T08:48:40;99912.78;;;12.46;78.93
32298;BME280;18782;48.984;8.548;2022-09-17T08:51:14;99908.56;;;12.51;78.42
32298;BME280;18782;48.984;8.548;2022-09-17T08:53:55;99923.97;;;12.45;78.35
32298;BME280;18782;48.984;8.548;2022-09-17T08:56:25;99919.31;;;12.24;79.17
32298;BME280;18782;48.984;8.548;2022-09-17T08:59:05;99923.25;;;12.05;78.82
32298;BME280;18782;48.984;8.548;2022-09-17T09:01:41;99930.97;;;12.02;79.45
32298;BME280;18782;48.984;8.548;2022-09-17T09:04:27;99915.56;;;12.07;79.69
32298;BME280;18782;48.984;8.548;2022-09-17T09:07:01;99918.66;;;12.36;80.47
32298;BME280;18782;48.984;8.548;2022-09-17T09:09:35;99924.06;;;12.51;78.18
32298;BME280;18782;48.984;8.548;2022-09-17T09:12:08;99934.53;;;12.60;77.36
32298;BME280;18782;48.984;8.548;2022-09-17T09:14:47;99910.28;;;12.49;79.11
32298;BME280;18782;48.984;8.548;2022-09-17T09:17:17;99919.06;;;12.62;79.11
32298;BME280;18782;48.984;8.548;2022-09-17T09:19:48;99923.00;;;12.38;77.12
32298;BME280;18782;48.984;8.548;2022-09-17T09:22:31;99913.69;;;12.48;77.79
32298;BME280;18782;48.984;8.548;2022-09-17T09:25:11;99913.69;;;12.48;77.95
32298;BME280;18782;48.984;8.548;2022-09-17T09:27:45;99907.63;;;12.44;77.63
32298;BME280;18782;48.984;8.548;2022-09-17T09:30:18;99917.16;;;12.50;77.36
32298;BME280;18782;48.984;8.548;2022-09-17T09:32:55;99912.81;;;12.47;76.15
32298;BME280;18782;48.984;8.548;2022-09-17T09:35:26;99922.50;;;12.62;76.17
32298;BME280;18782;48.984;8.548;2022-09-17T09:37:58;99907.09;;;12.65;73.25
32298;BME280;18782;48.984;8.548;2022-09-17T09:40:36;99905.66;;;12.86;73.16
32298;BME280;18782;48.984;8.548;2022-09-17T09:43:13;99911.00;;;12.98;72.80
32298;BME280;18782;48.984;8.548;2022-09-17T09:46:06;99906.16;;;13.21;73.22
32298;BME280;18782;48.984;8.548;2022-09-17T09:48:37;99909.56;;;13.18;73.95
32298;BME280;18782;48.984;8.548;2022-09-17T09:51:17;99903.03;;;13.45;72.89
32298;BME280;18782;48.984;8.548;2022-09-17T09:54:01;99909.97;;;13.49;71.12
32298;BME280;18782;48.984;8.548;2022-09-17T09:56:57;99911.84;;;13.62;71.12
32298;BME280;18782;48.984;8.548;2022-09-17T09:59:29;99910.34;;;13.79;66.96
32298;BME280;18782;48.984;8.548;2022-09-17T10:01:58;99894.66;;;13.64;70.32
32298;BME280;18782;48.984;8.548;2022-09-17T10:04:27;99903.16;;;13.54;68.44
32298;BME280;18782;48.984;8.548;2022-09-17T10:06:59;99902.22;;;13.49;70.32
32298;BME280;18782;48.984;8.548;2022-09-17T10:09:29;99899.75;;;13.61;71.30
32298;BME280;18782;48.984;8.548;2022-09-17T10:12:03;99909.25;;;13.59;70.13
32298;BME280;18782;48.984;8.548;2022-09-17T10:14:31;99908.69;;;13.88;70.70
32298;BME280;18782;48.984;8.548;2022-09-17T10:17:18;99900.41;;;14.21;70.17
32298;BME280;18782;48.984;8.548;2022-09-17T10:20:13;99905.72;;;14.38;68.59
32298;BME280;18782;48.984;8.548;2022-09-17T10:22:47;99904.91;;;14.45;68.33
32298;BME280;18782;48.984;8.548;2022-09-17T10:25:25;99905.03;;;14.60;67.60
32298;BME280;18782;48.984;8.548;2022-09-17T10:27:54;99893.78;;;14.55;67.08
32298;BME280;18782;48.984;8.548;2022-09-17T10:30:22;99893.81;;;14.61;68.00
32298;BME280;18782;48.984;8.548;2022-09-17T10:33:16;99895.69;;;14.80;67.73
32298;BME280;18782;48.984;8.548;2022-09-17T10:35:55;99885.91;;;14.46;68.05
32298;BME280;18782;48.984;8.548;2022-09-17T10:38:35;99891.19;;;14.55;68.34
32298;BME280;18782;48.984;8.548;2022-09-17T10:41:12;99883.56;;;14.73;67.32
32298;BME280;18782;48.984;8.548;2022-09-17T10:43:40;99877.25;;;14.44;67.62
32298;BME280;18782;48.984;8.548;2022-09-17T10:46:11;99889.53;;;14.63;67.61
32298;BME280;18782;48.984;8.548;2022-09-17T10:48:45;99885.41;;;14.96;64.84
32298;BME280;18782;48.984;8.548;2022-09-17T10:51:21;99886.41;;;15.21;64.72
32298;BME280;18782;48.984;8.548;2022-09-17T10:54:14;99871.88;;;15.58;62.86
32298;BME280;18782;48.984;8.548;2022-09-17T10:56:47;99883.22;;;15.94;61.96
32298;BME280;18782;48.984;8.548;2022-09-17T10:59:42;99868.53;;;16.51;62.31
32298;BME280;18782;48.984;8.548;2022-09-17T11:02:30;99852.00;;;16.94;59.04
32298;BME280;18782;48.984;8.548;2022-09-17T11:05:09;99865.69;;;17.50;59.25
32298;BME280;18782;48.984;8.548;2022-09-17T11:07:48;99863.31;;;16.78;57.99
32298;BME280;18782;48.984;8.548;2022-09-17T11:10:24;99871.09;;;15.91;62.33
32298;BME280;18782;48.984;8.548;2022-09-17T11:13:05;99869.28;;;15.56;67.42
32298;BME280;18782;48.984;8.548;2022-09-17T11:15:47;99869.09;;;15.10;68.60
32298;BME280;18782;48.984;8.548;2022-09-17T11:18:33;99871.59;;;14.97;71.89
32298;BME280;18782;48.984;8.548;2022-09-17T11:21:25;99863.19;;;15.53;72.58
32298;BME280;18782;48.984;8.548;2022-09-17T11:24:17;99865.91;;;16.02;69.04
32298;BME280;18782;48.984;8.548;2022-09-17T11:26:58;99854.69;;;16.00;67.36
32298;BME280;18782;48.984;8.548;2022-09-17T11:29:42;99861.56;;;15.91;67.00
32298;BME280;18782;48.984;8.548;2022-09-17T11:32:29;99867.47;;;15.37;66.25
32298;BME280;18782;48.984;8.548;2022-09-17T11:35:02;99872.38;;;14.77;69.14
32298;BME280;18782;48.984;8.548;2022-09-17T11:37:39;99881.41;;;14.23;73.66
32298;BME280;18782;48.984;8.548;2022-09-17T11:40:18;99877.00;;;14.13;75.17
32298;BME280;18782;48.984;8.548;2022-09-17T11:42:50;99862.38;;;14.18;75.83
32298;BME280;18782;48.984;8.548;2022-09-17T11:45:23;99861.72;;;14.44;78.08
32298;BME280;18782;48.984;8.548;2022-09-17T11:47:57;99854.13;;;14.65;79.44
32298;BME280;18782;48.984;8.548;2022-09-17T11:50:29;99855.06;;;14.73;79.11
32298;BME280;18782;48.984;8.548;2022-09-17T11:53:04;99869.72;;;14.68;78.21
32298;BME280;18782;48.984;8.548;2022-09-17T11:55:38;99862.84;;;14.73;77.62
32298;BME280;18782;48.984;8.548;2022-09-17T11:58:13;99850.78;;;14.81;78.55
32298;BME280;18782;48.984;8.548;2022-09-17T12:00:47;99849.16;;;14.99;80.52
32298;BME280;18782;48.984;8.548;2022-09-17T12:03:22;99848.28;;;14.97;80.64
32298;BME280;18782;48.984;8.548;2022-09-17T12:05:53;99865.56;;;14.98;79.07
32298;BME280;18782;48.984;8.548;2022-09-17T12:08:28;99876.72;;;14.84;77.22
32298;BME280;18782;48.984;8.548;2022-09-17T12:11:06;99910.06;;;14.45;78.81
32298;BME280;18782;48.984;8.548;2022-09-17T12:13:40;99919.03;;;13.88;77.52
32298;BME280;18782;48.984;8.548;2022-09-17T12:16:14;99904.75;;;13.43;79.28
32298;BME280;18782;48.984;8.548;2022-09-17T12:18:48;99908.50;;;13.04;78.20
32298;BME280;18782;48.984;8.548;2022-09-17T12:21:24;99898.88;;;12.92;80.75
32298;BME280;18782;48.984;8.548;2022-09-17T12:23:58;99901.38;;;12.88;81.27
32298;BME280;18782;48.984;8.548;2022-09-17T12:26:33;99890.47;;;13.10;80.45
32298;BME280;18782;48.984;8.548;2022-09-17T12:29:14;99882.41;;;13.51;80.49
32298;BME280;18782;48.984;8.548;2022-09-17T12:31:48;99887.09;;;13.86;77.60
32298;BME280;18782;48.984;8.548;2022-09-17T12:34:34;99885.69;;;14.15;75.32
32298;BME280;18782;48.984;8.548;2022-09-17T12:37:12;99874.47;;;14.19;72.61
32298;BME280;18782;48.984;8.548;2022-09-17T12:40:06;99866.16;;;14.54;72.65
32298;BME280;18782;48.984;8.548;2022-09-17T12:42:46;99862.91;;;14.85;74.31
32298;BME280;18782;48.984;8.548;2022-09-17T12:45:30;99865.56;;;14.95;72.59
32298;BME280;18782;48.984;8.548;2022-09-17T12:51:23;99865.78;;;15.48;73.54
32298;BME280;18782;48.984;8.548;2022-09-17T12:53:55;99859.84;;;15.72;72.43
32298;BME280;18782;48.984;8.548;2022-09-17T12:56:31;99863.22;;;15.56;72.35
32298;BME280;18782;48.984;8.548;2022-09-17T12:59:08;99866.66;;;15.52;71.34
32298;BME280;18782;48.984;8.548;2022-09-17T13:01:44;99864.81;;;15.20;72.08
32298;BME280;18782;48.984;8.548;2022-09-17T13:04:24;99857.22;;;15.63;71.22
32298;BME280;18782;48.984;8.548;2022-09-17T13:07:50;99858.13;;;16.57;70.65
32298;BME280;18782;48.984;8.548;2022-09-17T13:13:42;99854.69;;;16.36;68.78
32298;BME280;18782;48.984;8.548;2022-09-17T13:16:16;99847.72;;;16.80;65.34
32298;BME280;18782;48.984;8.548;2022-09-17T13:18:53;99848.56;;;16.92;64.59
32298;BME280;18782;48.984;8.548;2022-09-17T13:21:50;99851.06;;;17.23;63.82
32298;BME280;18782;48.984;8.548;2022-09-17T13:24:21;99847.19;;;17.94;62.46
32298;BME280;18782;48.984;8.548;2022-09-17T13:26:51;99841.53;;;18.49;60.06
32298;BME280;18782;48.984;8.548;2022-09-17T13:32:45;99833.38;;;18.86;56.44
32298;BME280;18782;48.984;8.548;2022-09-17T13:35:49;99834.19;;;18.91;56.82
32298;BME280;18782;48.984;8.548;2022-09-17T13:38:18;99847.44;;;19.45;53.78
32298;BME280;18782;48.984;8.548;2022-09-17T13:40:50;99833.72;;;20.45;54.36
32298;BME280;18782;48.984;8.548;2022-09-17T13:43:20;99844.03;;;22.22;49.75